Time;durP1;ratioP1;P1;durP2;ratioP2;P2;SDS_P1;SDS_P2;PMS_P1;PMS_P2;Temp;Humidity;BMP_temperature;BMP_pressure;BME280_temperature;BME280_humidity;BME280_pressure;Samples;Min_cycle;Max_cycle;Signal;HPM_P1;HPM_P2
2022/01/24 00:00:53;;;;;;;15.40;11.57;;;;;;;7.59;100.00;103500.72;5100759;28;20031;-67
2022/01/24 00:03:19;;;;;;;15.00;12.45;;;;;;;7.59;100.00;103499.84;5085549;28;20031;-68
2022/01/24 00:05:44;;;;;;;14.52;11.52;;;;;;;7.58;100.00;103506.34;5103432;28;20132;-68
2022/01/24 00:08:10;;;;;;;12.93;11.20;;;;;;;7.61;100.00;103508.66;5099288;28;20517;-68
2022/01/24 00:10:38;;;;;;;16.30;11.98;;;;;;;7.44;100.00;103508.94;5102789;28;20490;-67
2022/01/24 00:13:32;;;;;;;18.20;12.90;;;;;;;7.57;100.00;103507.38;5101670;28;20106;-68
2022/01/24 00:18:28;;;;;;;14.35;11.25;;;;;;;7.54;100.00;103500.41;5100091;28;20034;-68
2022/01/24 00:26:46;;;;;;;15.27;12.13;;;;;;;7.73;100.00;103507.09;5104835;28;20095;-68
2022/01/24 00:29:16;;;;;;;12.27;10.88;;;;;;;7.66;100.00;103501.59;5099676;28;20195;-68
2022/01/24 00:31:41;;;;;;;14.98;11.65;;;;;;;7.60;100.00;103498.81;5104189;28;20031;-68
2022/01/24 00:34:07;;;;;;;13.88;11.88;;;;;;;7.51;100.00;103492.63;5105757;28;20027;-68
2022/01/24 00:36:32;;;;;;;15.25;12.98;;;;;;;7.59;100.00;103499.84;5103124;28;20086;-67
2022/01/24 00:38:58;;;;;;;14.93;12.68;;;;;;;7.46;100.00;103495.97;5100285;28;20034;-68
2022/01/24 00:41:24;;;;;;;14.95;11.68;;;;;;;7.57;100.00;103494.56;5088383;28;20024;-68
2022/01/24 00:46:32;;;;;;;14.43;11.43;;;;;;;7.50;100.00;103489.06;5084185;28;20123;-69
2022/01/24 00:56:59;;;;;;;13.75;11.90;;;;;;;7.65;100.00;103493.59;5082263;28;20146;-67
2022/01/24 00:59:25;;;;;;;14.95;12.68;;;;;;;7.65;100.00;103482.66;5094211;28;20040;-68
2022/01/24 01:01:51;;;;;;;16.77;12.85;;;;;;;7.54;100.00;103486.78;5102747;28;20027;-70
2022/01/24 01:04:18;;;;;;;14.02;11.60;;;;;;;7.52;100.00;103486.13;5101901;28;20035;-68
2022/01/24 01:06:45;;;;;;;13.63;11.32;;;;;;;7.53;100.00;103485.94;5104092;28;20042;-68
2022/01/24 01:20:09;;;;;;;13.82;11.43;;;;;;;7.68;100.00;103490.47;5084382;28;20040;-68
2022/01/24 01:22:34;;;;;;;15.40;12.07;;;;;;;7.67;100.00;103491.50;5089832;28;20032;-68
2022/01/24 01:25:00;;;;;;;16.85;11.93;;;;;;;7.65;100.00;103491.69;5089515;28;20035;-70
2022/01/24 01:27:33;;;;;;;14.82;11.07;;;;;;;7.66;100.00;103489.84;5087213;28;20032;-68
2022/01/24 01:30:05;;;;;;;15.55;11.73;;;;;;;7.50;100.00;103485.50;5085000;28;20123;-68
2022/01/24 01:32:58;;;;;;;14.73;11.18;;;;;;;7.48;100.00;103487.59;5086464;28;20089;-68
2022/01/24 01:57:18;;;;;;;17.58;12.80;;;;;;;7.13;100.00;103481.97;5084064;28;20343;-67
2022/01/24 01:59:44;;;;;;;15.60;11.95;;;;;;;7.16;100.00;103484.31;5085431;28;20500;-67
2022/01/24 02:02:10;;;;;;;16.65;13.23;;;;;;;7.27;100.00;103493.88;5092931;28;20072;-68
2022/01/24 02:04:36;;;;;;;19.17;14.68;;;;;;;7.24;100.00;103483.38;5104523;28;20431;-68
2022/01/24 02:07:04;;;;;;;19.73;15.35;;;;;;;7.35;100.00;103485.56;5103226;28;20097;-67
2022/01/24 02:09:31;;;;;;;16.35;14.00;;;;;;;7.45;100.00;103475.16;5070852;28;20039;-67
2022/01/24 02:11:58;;;;;;;17.20;14.52;;;;;;;7.48;100.00;103476.66;5106576;28;20019;-69
2022/01/24 02:14:31;;;;;;;19.92;14.98;;;;;;;7.51;100.00;103473.50;5088493;28;20039;-68
2022/01/24 02:17:06;;;;;;;21.95;17.15;;;;;;;7.43;100.00;103469.06;5106356;28;20118;-68
2022/01/24 02:24:43;;;;;;;19.98;15.80;;;;;;;7.47;100.00;103459.41;5067455;28;20051;-67
2022/01/24 02:27:10;;;;;;;21.77;17.58;;;;;;;7.41;100.00;103462.09;5084555;28;20024;-67
2022/01/24 02:32:07;;;;;;;21.23;17.40;;;;;;;7.35;100.00;103463.75;5089912;28;20487;-68
2022/01/24 02:34:38;;;;;;;21.88;18.23;;;;;;;7.44;100.00;103456.25;5085059;28;20051;-68
2022/01/24 02:37:11;;;;;;;21.90;16.92;;;;;;;7.49;100.00;103453.75;5082263;28;20048;-68
2022/01/24 02:39:55;;;;;;;21.60;18.27;;;;;;;7.55;100.00;103450.25;5084482;28;20043;-68
2022/01/24 02:53:10;;;;;;;25.90;20.65;;;;;;;7.42;100.00;103450.97;5085322;28;20578;-67
2022/01/24 02:55:38;;;;;;;21.75;18.08;;;;;;;7.53;100.00;103447.72;5076155;28;20032;-67
2022/01/24 02:58:05;;;;;;;26.50;19.85;;;;;;;7.61;100.00;103451.34;5099430;28;20397;-67
2022/01/24 03:00:32;;;;;;;25.73;18.40;;;;;;;7.49;100.00;103451.03;5080489;28;20032;-67
2022/01/24 03:02:57;;;;;;;24.52;18.67;;;;;;;7.46;100.00;103448.69;5083617;28;20036;-67
2022/01/24 03:05:23;;;;;;;28.38;20.45;;;;;;;7.46;100.00;103435.03;5082828;28;20233;-68
2022/01/24 03:07:48;;;;;;;23.10;18.10;;;;;;;6.88;100.00;103448.78;5083348;28;20089;-68
2022/01/24 03:10:24;;;;;;;24.63;18.85;;;;;;;7.15;100.00;103433.53;5082379;28;20372;-68
2022/01/24 03:12:59;;;;;;;25.13;19.88;;;;;;;7.27;100.00;103437.41;5083289;28;20405;-68
2022/01/24 03:15:25;;;;;;;24.58;19.17;;;;;;;7.26;100.00;103435.72;5089292;28;20039;-68
2022/01/24 03:17:51;;;;;;;27.23;21.15;;;;;;;7.20;100.00;103441.97;5104441;28;20104;-69
2022/01/24 03:20:16;;;;;;;29.65;22.20;;;;;;;7.28;100.00;103443.72;5101674;28;20110;-67
2022/01/24 03:22:41;;;;;;;34.45;25.02;;;;;;;7.31;100.00;103433.28;5100274;28;20031;-68
2022/01/24 03:25:07;;;;;;;31.95;23.98;;;;;;;7.35;100.00;103433.72;5101813;28;20030;-67
2022/01/24 03:27:33;;;;;;;33.60;25.15;;;;;;;7.39;100.00;103429.53;5068602;28;20484;-68
2022/01/24 03:29:58;;;;;;;32.05;24.10;;;;;;;7.38;100.00;103416.94;5103365;28;20028;-69
2022/01/24 03:32:24;;;;;;;33.40;23.33;;;;;;;7.34;100.00;103418.38;5101731;28;20028;-68
2022/01/24 03:34:49;;;;;;;32.97;23.95;;;;;;;7.40;100.00;103430.41;5105147;28;20127;-66
2022/01/24 03:37:14;;;;;;;33.67;25.70;;;;;;;7.31;100.00;103416.91;5100069;28;20047;-66
2022/01/24 03:39:40;;;;;;;32.20;23.55;;;;;;;7.36;100.00;103414.41;5102571;28;20106;-68
2022/01/24 03:42:07;;;;;;;29.63;23.33;;;;;;;7.44;100.00;103420.75;5064214;28;20035;-67
2022/01/24 03:44:32;;;;;;;31.55;24.05;;;;;;;7.50;100.00;103419.97;5068774;28;20085;-68
2022/01/24 03:52:09;;;;;;;30.77;22.08;;;;;;;7.54;100.00;103416.66;5101718;28;20133;-68
2022/01/24 03:54:35;;;;;;;28.55;22.13;;;;;;;7.60;100.00;103423.19;5086024;28;20043;-68
2022/01/24 03:57:02;;;;;;;27.33;21.83;;;;;;;7.52;100.00;103426.91;5101955;28;20437;-68
2022/01/24 03:59:30;;;;;;;26.80;20.17;;;;;;;7.54;100.00;103422.13;5104447;28;20532;-69
2022/01/24 04:01:57;;;;;;;28.92;21.98;;;;;;;7.51;100.00;103417.06;5102738;28;20102;-68
2022/01/24 04:04:22;;;;;;;30.67;22.55;;;;;;;7.25;100.00;103422.31;5091228;28;20020;-68
2022/01/24 04:06:48;;;;;;;31.70;23.90;;;;;;;7.37;100.00;103417.97;5084049;28;20060;-68
2022/01/24 04:09:14;;;;;;;33.15;24.58;;;;;;;7.46;100.00;103418.66;5097148;28;20059;-68
2022/01/24 04:11:40;;;;;;;33.80;24.95;;;;;;;7.47;100.00;103426.66;5095746;28;20107;-68
2022/01/24 04:14:27;;;;;;;30.48;22.17;;;;;;;7.52;100.00;103431.53;5083038;28;20028;-68
2022/01/24 04:17:20;;;;;;;32.50;24.25;;;;;;;7.52;100.00;103426.06;5085207;28;20039;-68
2022/01/24 04:22:33;;;;;;;29.58;22.00;;;;;;;7.46;100.00;103429.59;5079119;28;20557;-67
2022/01/24 04:25:01;;;;;;;31.27;22.98;;;;;;;7.46;100.00;103435.91;5083581;28;20031;-67
2022/01/24 04:27:28;;;;;;;30.35;23.85;;;;;;;7.41;100.00;103427.47;5092557;28;20064;-67
2022/01/24 04:29:53;;;;;;;32.83;24.73;;;;;;;7.09;100.00;103434.31;5103779;28;20102;-67
2022/01/24 04:32:20;;;;;;;30.13;22.92;;;;;;;7.27;100.00;103421.03;5100383;28;20035;-69
2022/01/24 04:34:45;;;;;;;31.75;23.60;;;;;;;7.34;100.00;103423.84;5077095;28;20036;-68
2022/01/24 04:37:12;;;;;;;28.63;22.60;;;;;;;7.35;100.00;103426.38;5078897;28;20048;-67
2022/01/24 04:39:38;;;;;;;32.33;24.13;;;;;;;7.31;100.00;103416.91;5101759;28;20035;-68
2022/01/24 04:42:10;;;;;;;33.60;24.85;;;;;;;7.27;100.00;103409.28;5103660;28;20028;-66
2022/01/24 04:54:55;;;;;;;34.28;24.90;;;;;;;7.35;100.00;103412.72;5106748;28;20027;-67
2022/01/24 04:57:23;;;;;;;31.55;24.45;;;;;;;7.38;100.00;103416.09;5105158;27;20110;-68
2022/01/24 04:59:50;;;;;;;33.20;25.48;;;;;;;7.42;100.00;103410.03;5106288;28;20597;-68
2022/01/24 05:02:17;;;;;;;33.10;23.95;;;;;;;7.44;100.00;103407.13;5087609;28;20035;-68
2022/01/24 05:04:43;;;;;;;31.60;24.10;;;;;;;7.40;100.00;103403.94;5108348;28;20395;-67
2022/01/24 05:07:09;;;;;;;34.17;24.92;;;;;;;7.43;100.00;103405.41;5063374;28;20214;-68
2022/01/24 05:09:40;;;;;;;31.10;23.52;;;;;;;7.35;100.00;103404.53;5083892;28;20028;-69
2022/01/24 05:12:15;;;;;;;32.65;24.77;;;;;;;6.99;100.00;103408.19;5087103;28;20043;-67
2022/01/24 05:25:38;;;;;;;34.60;25.75;;;;;;;7.37;100.00;103398.88;5095122;28;20039;-67
2022/01/24 05:28:03;;;;;;;32.85;24.50;;;;;;;7.42;100.00;103401.84;5085857;28;20028;-66
2022/01/24 05:30:29;;;;;;;31.30;23.42;;;;;;;7.41;100.00;103404.78;5084509;28;20107;-67
2022/01/24 05:32:54;;;;;;;34.80;25.13;;;;;;;7.43;100.00;103408.16;5085333;28;20451;-67
2022/01/24 05:35:20;;;;;;;38.15;27.67;;;;;;;7.39;100.00;103412.31;5086151;28;20851;-68
2022/01/24 05:37:45;;;;;;;36.22;26.73;;;;;;;7.26;100.00;103408.44;5081299;28;20419;-68
2022/01/24 05:40:11;;;;;;;35.25;27.08;;;;;;;7.26;100.00;103408.44;5086790;28;20128;-66
2022/01/24 05:42:36;;;;;;;36.65;27.42;;;;;;;7.35;100.00;103407.25;5066448;28;20548;-68
2022/01/24 05:45:04;;;;;;;33.97;25.45;;;;;;;7.22;100.00;103406.31;5087535;28;20020;-68
2022/01/24 05:47:29;;;;;;;35.78;25.70;;;;;;;7.14;100.00;103407.28;5082181;28;20071;-67
2022/01/24 05:49:55;;;;;;;34.65;25.95;;;;;;;7.28;100.00;103410.97;5096325;28;20453;-67
2022/01/24 05:52:20;;;;;;;36.22;26.20;;;;;;;7.31;100.00;103405.97;5103663;28;20451;-68
2022/01/24 05:54:46;;;;;;;34.45;27.10;;;;;;;7.33;100.00;103408.50;5105776;28;20519;-67
2022/01/24 05:57:11;;;;;;;36.15;26.38;;;;;;;7.25;100.00;103414.13;5105363;28;20178;-67
2022/01/24 05:59:37;;;;;;;39.95;27.88;;;;;;;7.27;100.00;103409.28;5107196;28;20141;-67
2022/01/24 06:02:04;;;;;;;37.08;26.63;;;;;;;7.18;100.00;103423.09;5106851;28;20031;-68
2022/01/24 06:04:29;;;;;;;33.78;25.20;;;;;;;7.14;100.00;103415.47;5105474;28;20443;-69
2022/01/24 06:07:04;;;;;;;38.35;28.17;;;;;;;7.25;100.00;103420.41;5101387;28;20528;-67
2022/01/24 06:09:30;;;;;;;38.65;26.92;;;;;;;7.26;100.00;103422.06;5067501;28;20024;-69
2022/01/24 06:11:55;;;;;;;38.30;27.85;;;;;;;7.27;100.00;103431.13;5066805;28;20065;-68
2022/01/24 06:14:21;;;;;;;37.42;27.95;;;;;;;7.27;100.00;103423.78;5063804;28;20036;-69
2022/01/24 06:16:46;;;;;;;34.67;27.25;;;;;;;7.14;100.00;103418.22;5067710;28;20077;-68
2022/01/24 06:19:12;;;;;;;34.72;26.50;;;;;;;7.17;100.00;103426.00;5082202;28;20035;-66
2022/01/24 06:21:37;;;;;;;37.10;28.65;;;;;;;6.97;100.00;103423.94;5083801;28;20522;-67
2022/01/24 06:24:03;;;;;;;36.25;26.73;;;;;;;7.09;100.00;103417.94;5079941;28;20043;-67
2022/01/24 06:26:29;;;;;;;37.10;26.13;;;;;;;7.13;100.00;103421.97;5096679;28;20052;-67
2022/01/24 06:28:55;;;;;;;40.25;29.73;;;;;;;7.05;100.00;103427.56;5103324;28;20678;-68
2022/01/24 06:31:24;;;;;;;39.35;28.80;;;;;;;7.13;100.00;103425.56;5088098;28;20479;-67
2022/01/24 06:33:51;;;;;;;39.28;28.52;;;;;;;7.18;100.00;103416.75;5099055;28;20031;-67
2022/01/24 06:36:19;;;;;;;37.05;27.95;;;;;;;7.02;100.00;103422.47;5086738;28;20067;-68
2022/01/24 06:38:45;;;;;;;37.20;27.77;;;;;;;7.02;100.00;103419.75;5082026;28;20036;-68
2022/01/24 06:41:10;;;;;;;39.40;28.08;;;;;;;6.89;100.00;103429.50;5104386;28;20087;-66
2022/01/24 06:43:36;;;;;;;39.38;27.85;;;;;;;7.01;100.00;103426.25;5101086;28;20108;-67
2022/01/24 06:46:01;;;;;;;37.17;28.50;;;;;;;6.94;100.00;103434.38;5105227;28;20456;-67
2022/01/24 06:48:27;;;;;;;39.53;28.45;;;;;;;6.94;100.00;103428.94;5102669;28;20337;-69
2022/01/24 06:50:53;;;;;;;37.50;27.67;;;;;;;7.13;100.00;103422.81;5103446;28;20028;-68
2022/01/24 06:53:19;;;;;;;40.40;29.27;;;;;;;7.23;100.00;103430.69;5101020;28;20496;-68
2022/01/24 06:55:45;;;;;;;42.22;29.58;;;;;;;7.19;100.00;103423.91;5101424;28;20634;-67
2022/01/24 06:58:10;;;;;;;38.70;28.60;;;;;;;7.07;100.00;103429.06;5085968;28;20035;-69
2022/01/24 07:00:36;;;;;;;38.53;27.77;;;;;;;7.15;100.00;103428.94;5082013;28;20393;-69
2022/01/24 07:03:02;;;;;;;33.80;26.40;;;;;;;7.18;100.00;103431.25;5083215;28;20039;-68
2022/01/24 07:05:29;;;;;;;40.20;29.83;;;;;;;7.08;100.00;103433.44;5088860;28;20032;-70
2022/01/24 07:07:56;;;;;;;44.13;30.95;;;;;;;7.03;100.00;103443.28;5101532;28;20143;-69
2022/01/24 07:10:27;;;;;;;43.80;31.42;;;;;;;6.77;100.00;103441.94;5103878;28;20020;-70
2022/01/24 07:12:53;;;;;;;42.45;32.13;;;;;;;6.84;100.00;103451.06;5085852;28;20026;-67
2022/01/24 07:15:21;;;;;;;45.50;31.60;;;;;;;6.89;100.00;103448.59;5086506;28;20027;-68
2022/01/24 07:18:11;;;;;;;40.35;29.67;;;;;;;7.05;100.00;103461.16;5086111;28;20104;-68
2022/01/24 07:20:35;;;;;;;40.67;29.88;;;;;;;7.08;100.00;103459.91;5101735;28;20367;-69
2022/01/24 07:23:05;;;;;;;42.95;32.28;;;;;;;6.99;100.00;103453.72;5101767;28;20027;-66
2022/01/24 07:25:31;;;;;;;43.47;32.28;;;;;;;7.14;100.00;103456.41;5103907;28;20028;-67
2022/01/24 07:27:56;;;;;;;46.35;33.33;;;;;;;7.09;100.00;103459.72;5104211;28;20057;-67
2022/01/24 07:30:23;;;;;;;43.28;32.47;;;;;;;6.83;100.00;103468.44;5086831;28;20127;-68
2022/01/24 07:32:49;;;;;;;44.45;32.85;;;;;;;6.85;100.00;103465.53;5101853;28;20042;-67
2022/01/24 07:35:14;;;;;;;46.00;32.40;;;;;;;6.92;100.00;103474.63;5102229;28;20027;-67
2022/01/24 07:37:40;;;;;;;44.88;33.00;;;;;;;6.99;100.00;103473.66;5100809;28;20046;-68
2022/01/24 07:40:08;;;;;;;49.05;34.65;;;;;;;7.11;100.00;103479.44;5084122;28;20127;-68
2022/01/24 07:42:53;;;;;;;47.28;35.13;;;;;;;7.15;100.00;103469.84;5084746;28;20028;-66
2022/01/24 07:45:20;;;;;;;44.25;33.08;;;;;;;7.02;100.00;103469.72;5089120;28;20089;-67
2022/01/24 07:47:48;;;;;;;47.15;34.70;;;;;;;6.81;100.00;103481.44;5085795;28;20036;-67
2022/01/24 07:50:17;;;;;;;49.83;36.53;;;;;;;6.80;100.00;103480.59;5085727;28;20028;-69
2022/01/24 07:52:42;;;;;;;49.42;35.88;;;;;;;6.85;100.00;103473.72;5082289;28;20122;-67
2022/01/24 07:55:08;;;;;;;48.83;35.13;;;;;;;6.74;100.00;103475.03;5070602;28;20103;-67
2022/01/24 07:57:33;;;;;;;51.13;36.35;;;;;;;6.65;100.00;103473.50;5084070;28;20142;-67
2022/01/24 07:59:58;;;;;;;52.22;37.33;;;;;;;6.75;100.00;103476.75;5085695;28;20392;-67
2022/01/24 08:02:25;;;;;;;57.08;37.10;;;;;;;6.59;100.00;103477.81;5083325;28;20107;-68
2022/01/24 08:04:50;;;;;;;53.58;38.72;;;;;;;6.73;100.00;103476.94;5084291;28;20089;-68
2022/01/24 08:07:16;;;;;;;53.42;38.10;;;;;;;6.81;100.00;103474.09;5082271;28;20276;-68
2022/01/24 08:09:41;;;;;;;52.10;36.40;;;;;;;6.88;100.00;103476.06;5083558;28;20103;-67
2022/01/24 08:12:07;;;;;;;52.83;37.22;;;;;;;6.74;100.00;103472.31;5086686;28;20498;-67
2022/01/24 08:14:32;;;;;;;49.63;35.97;;;;;;;6.88;100.00;103479.63;5103130;28;20051;-69
2022/01/24 08:17:00;;;;;;;56.20;37.47;;;;;;;6.74;100.00;103477.78;5104877;28;20039;-68
2022/01/24 08:19:27;;;;;;;54.60;38.35;;;;;;;6.99;100.00;103481.00;5087317;28;20024;-68
2022/01/24 08:21:56;;;;;;;53.50;37.22;;;;;;;7.08;100.00;103485.28;5070297;28;20038;-67
2022/01/24 08:24:23;;;;;;;54.22;39.15;;;;;;;7.18;100.00;103493.16;5069133;28;20118;-67
2022/01/24 08:26:49;;;;;;;49.58;34.83;;;;;;;6.97;100.00;103483.94;5103439;28;20023;-66
2022/01/24 08:29:14;;;;;;;55.75;39.60;;;;;;;6.96;100.00;103484.13;5101134;28;20085;-67
2022/01/24 08:31:40;;;;;;;54.15;38.22;;;;;;;6.88;100.00;103482.34;5103356;28;20035;-67
2022/01/24 08:34:05;;;;;;;55.28;37.58;;;;;;;6.84;100.00;103475.59;5103941;28;20059;-67
2022/01/24 08:36:31;;;;;;;57.58;38.38;;;;;;;6.89;100.00;103484.06;5102804;28;20439;-65
2022/01/24 08:39:03;;;;;;;59.90;40.22;;;;;;;6.84;100.00;103485.66;5098873;28;20405;-67
2022/01/24 08:41:40;;;;;;;57.63;39.35;;;;;;;6.84;100.00;103480.19;5104649;28;20042;-67
2022/01/24 08:44:31;;;;;;;62.45;40.40;;;;;;;6.91;100.00;103483.84;5103742;28;20131;-68
2022/01/24 08:46:56;;;;;;;59.40;40.60;;;;;;;6.55;100.00;103484.69;5103478;28;20066;-68
2022/01/24 08:49:23;;;;;;;61.78;41.97;;;;;;;6.45;100.00;103493.16;5105091;28;20059;-69
2022/01/24 08:51:48;;;;;;;57.97;39.45;;;;;;;6.58;100.00;103479.69;5103665;28;20039;-68
2022/01/24 08:54:14;;;;;;;64.45;41.00;;;;;;;6.69;100.00;103477.50;5100070;28;20035;-68
2022/01/24 08:56:39;;;;;;;61.95;41.13;;;;;;;7.01;100.00;103480.81;5102648;28;20031;-68
2022/01/24 08:59:05;;;;;;;58.38;39.60;;;;;;;7.13;100.00;103480.13;5103323;28;20038;-68
2022/01/24 09:01:32;;;;;;;63.92;42.42;;;;;;;6.97;100.00;103475.75;5103828;28;20031;-69
2022/01/24 09:03:58;;;;;;;63.30;43.05;;;;;;;6.76;100.00;103484.75;5101425;28;20477;-68
2022/01/24 09:06:23;;;;;;;59.25;40.22;;;;;;;6.54;100.00;103483.00;5104409;28;20036;-68
2022/01/24 09:08:55;;;;;;;59.05;40.30;;;;;;;6.60;100.00;103483.06;5083456;28;20032;-67
2022/01/24 09:11:30;;;;;;;52.92;38.25;;;;;;;6.74;100.00;103475.03;5081689;28;20067;-68
2022/01/24 09:13:57;;;;;;;58.35;39.33;;;;;;;6.66;100.00;103492.38;5082586;28;20054;-68
2022/01/24 09:16:24;;;;;;;60.70;41.28;;;;;;;6.68;100.00;103486.75;5084201;28;20035;-68
2022/01/24 09:18:49;;;;;;;64.80;42.15;;;;;;;6.70;100.00;103487.38;5082821;28;20466;-68
2022/01/24 09:21:14;;;;;;;62.42;42.05;;;;;;;6.83;100.00;103484.81;5081866;28;20115;-67
2022/01/24 09:23:40;;;;;;;57.45;39.38;;;;;;;7.00;100.00;103479.94;5078656;28;20119;-67
2022/01/24 09:26:06;;;;;;;61.47;39.70;;;;;;;7.07;100.00;103486.34;5084979;28;20123;-67
2022/01/24 09:28:32;;;;;;;61.90;43.13;;;;;;;7.01;100.00;103487.13;5082438;28;20154;-67
2022/01/24 09:30:58;;;;;;;60.28;40.78;;;;;;;6.29;100.00;103496.91;5047113;28;20094;-67
2022/01/24 09:33:24;;;;;;;59.53;39.85;;;;;;;6.70;100.00;103499.13;5081062;28;20028;-67
2022/01/24 09:35:51;;;;;;;65.90;43.90;;;;;;;6.84;100.00;103500.16;5076848;28;20052;-68
2022/01/24 09:38:17;;;;;;;63.78;43.55;;;;;;;6.93;100.00;103500.88;5078955;28;20039;-68
2022/01/24 09:40:43;;;;;;;62.40;43.08;;;;;;;6.77;100.00;103501.94;5081930;28;20327;-69
2022/01/24 09:43:09;;;;;;;65.22;45.33;;;;;;;6.73;100.00;103504.19;5085059;28;20116;-68
2022/01/24 09:45:37;;;;;;;61.35;41.13;;;;;;;6.94;100.00;103502.56;5086477;28;20101;-68
2022/01/24 09:48:03;;;;;;;58.10;39.10;;;;;;;6.62;100.00;103504.69;5084406;28;20485;-68
2022/01/24 09:50:29;;;;;;;62.00;39.75;;;;;;;6.69;100.00;103499.31;5087676;28;20035;-68
2022/01/24 09:52:55;;;;;;;60.50;41.22;;;;;;;6.99;100.00;103502.84;5082132;28;20565;-69
2022/01/24 09:55:22;;;;;;;57.13;39.15;;;;;;;7.07;100.00;103504.59;5085889;28;20510;-69
2022/01/24 09:57:48;;;;;;;57.45;38.83;;;;;;;7.10;100.00;103498.72;5082708;28;20391;-68
2022/01/24 10:00:17;;;;;;;61.50;40.30;;;;;;;6.84;100.00;103504.75;5083272;28;20490;-68
2022/01/24 10:02:44;;;;;;;60.78;42.03;;;;;;;6.90;100.00;103506.69;5080502;28;20042;-69
2022/01/24 10:05:18;;;;;;;53.80;37.35;;;;;;;6.62;100.00;103507.41;5083158;28;20545;-68
2022/01/24 10:07:54;;;;;;;59.22;39.30;;;;;;;6.94;100.00;103510.75;5079389;28;20032;-69
2022/01/24 10:10:38;;;;;;;57.17;38.33;;;;;;;7.10;100.00;103506.91;5099258;28;20038;-69
2022/01/24 10:16:26;;;;;;;61.40;39.38;;;;;;;7.13;100.00;103506.53;5104322;28;20056;-68
2022/01/24 10:19:02;;;;;;;56.65;38.35;;;;;;;7.11;100.00;103509.44;5100150;28;20019;-67
2022/01/24 10:21:28;;;;;;;60.33;40.25;;;;;;;7.25;100.00;103507.72;5099298;28;20120;-68
2022/01/24 10:23:56;;;;;;;57.25;39.55;;;;;;;7.16;100.00;103504.25;5080349;28;20108;-68
2022/01/24 10:26:24;;;;;;;61.80;40.65;;;;;;;7.09;100.00;103505.25;5081805;28;20063;-69
2022/01/24 10:28:50;;;;;;;65.10;43.35;;;;;;;7.19;100.00;103513.94;5080619;28;20115;-69
2022/01/24 10:31:20;;;;;;;60.22;41.67;;;;;;;7.15;100.00;103510.78;5085019;28;20512;-69
2022/01/24 10:34:10;;;;;;;59.50;38.72;;;;;;;7.20;100.00;103507.47;5085544;28;20361;-69
2022/01/24 10:36:41;;;;;;;60.85;41.33;;;;;;;7.12;100.00;103510.31;5072054;28;20410;-69
2022/01/24 10:39:43;;;;;;;64.90;43.95;;;;;;;7.04;100.00;103516.72;5080826;28;20118;-69
2022/01/24 10:45:16;;;;;;;60.75;41.28;;;;;;;6.91;100.00;103511.97;5081846;28;20030;-68
2022/01/24 10:47:46;;;;;;;63.95;39.83;;;;;;;7.10;100.00;103505.06;5081569;28;20055;-68
2022/01/24 10:50:25;;;;;;;59.65;39.55;;;;;;;6.85;100.00;103503.72;5083426;28;20112;-69
2022/01/24 10:52:52;;;;;;;55.53;38.35;;;;;;;7.01;100.00;103508.94;5088197;28;20103;-68
2022/01/24 10:55:21;;;;;;;54.47;38.00;;;;;;;7.22;100.00;103499.09;5085946;28;20141;-68
2022/01/24 10:57:51;;;;;;;53.90;37.97;;;;;;;7.43;100.00;103501.81;5082201;28;20023;-68
2022/01/24 11:00:22;;;;;;;55.17;37.20;;;;;;;7.48;100.00;103490.31;5085077;28;20369;-68
2022/01/24 11:02:53;;;;;;;55.72;38.75;;;;;;;6.96;100.00;103498.59;5084049;28;20107;-68
2022/01/24 11:05:30;;;;;;;55.00;39.83;;;;;;;6.81;100.00;103493.19;5085517;28;20032;-69
2022/01/24 11:08:09;;;;;;;54.92;37.97;;;;;;;6.85;100.00;103490.91;5079853;28;20024;-69
2022/01/24 11:10:37;;;;;;;52.63;36.08;;;;;;;6.70;100.00;103490.13;5083952;28;20363;-68
2022/01/24 11:13:05;;;;;;;55.45;37.53;;;;;;;6.69;100.00;103482.97;5082152;28;20722;-67
2022/01/24 11:15:31;;;;;;;55.58;37.65;;;;;;;7.03;100.00;103486.91;5083025;28;20096;-68
2022/01/24 11:17:58;;;;;;;52.70;36.60;;;;;;;6.83;100.00;103478.53;5081353;28;20028;-69
2022/01/24 11:20:29;;;;;;;54.40;37.65;;;;;;;7.22;100.00;103478.09;5066593;28;20115;-69
2022/01/24 11:23:00;;;;;;;52.83;36.25;;;;;;;7.07;100.00;103472.69;5082581;28;20398;-69
2022/01/24 11:25:28;;;;;;;49.72;35.55;;;;;;;7.09;100.00;103472.50;5088895;28;20097;-67
2022/01/24 11:27:53;;;;;;;54.58;39.13;;;;;;;6.62;100.00;103472.84;5101072;28;20035;-68
2022/01/24 11:30:34;;;;;;;61.70;41.17;;;;;;;6.26;100.00;103467.31;5085926;28;20024;-68
2022/01/24 11:33:15;;;;;;;50.90;35.40;;;;;;;5.84;100.00;103464.19;5100454;28;20024;-68
2022/01/24 11:35:52;;;;;;;54.05;36.75;;;;;;;6.63;100.00;103470.94;5102957;28;20435;-70
2022/01/24 11:38:44;;;;;;;47.33;34.10;;;;;;;6.84;100.00;103467.44;5100534;28;20043;-69
2022/01/24 11:41:22;;;;;;;55.88;36.90;;;;;;;7.12;100.00;103469.41;5081807;28;20040;-68
2022/01/24 11:43:51;;;;;;;52.15;37.03;;;;;;;7.01;100.00;103472.63;5104810;28;20020;-68
2022/01/24 11:46:41;;;;;;;49.35;35.15;;;;;;;7.06;100.00;103470.16;5103913;28;20038;-68
2022/01/24 11:49:10;;;;;;;50.70;34.70;;;;;;;7.20;100.00;103469.28;5100124;28;20438;-68
2022/01/24 11:51:39;;;;;;;49.88;34.88;;;;;;;7.08;100.00;103470.81;5103754;28;20378;-69
2022/01/24 11:54:42;;;;;;;47.95;32.10;;;;;;;6.92;100.00;103460.97;5099429;28;20028;-69
2022/01/24 11:57:20;;;;;;;47.30;32.67;;;;;;;6.67;100.00;103463.22;5099084;28;20042;-67
2022/01/24 11:59:47;;;;;;;45.10;32.47;;;;;;;6.98;100.00;103460.22;5102129;28;20028;-67
2022/01/24 12:02:18;;;;;;;50.60;36.47;;;;;;;7.32;100.00;103458.66;5101796;28;20118;-69
2022/01/24 12:04:51;;;;;;;50.55;34.92;;;;;;;6.85;100.00;103455.47;5103694;28;20016;-69
2022/01/24 12:07:23;;;;;;;47.95;34.33;;;;;;;7.44;100.00;103458.97;5100932;28;20434;-69
2022/01/24 12:09:51;;;;;;;49.72;34.90;;;;;;;7.65;100.00;103456.19;5103061;28;20108;-69
2022/01/24 12:12:46;;;;;;;54.10;36.95;;;;;;;7.20;100.00;103450.16;5084316;28;20027;-69
2022/01/24 12:15:37;;;;;;;51.35;37.10;;;;;;;6.86;100.00;103462.63;5093411;28;20424;-69
2022/01/24 12:18:26;;;;;;;50.72;36.53;;;;;;;7.01;100.00;103454.38;5080451;28;20027;-69
2022/01/24 12:20:57;;;;;;;48.90;34.20;;;;;;;6.32;100.00;103455.69;5067855;28;20074;-68
2022/01/24 12:23:25;;;;;;;53.55;37.67;;;;;;;6.39;100.00;103458.47;5079269;28;20032;-68
2022/01/24 12:25:58;;;;;;;51.58;36.85;;;;;;;6.78;100.00;103446.38;5081178;28;20030;-69
2022/01/24 12:28:25;;;;;;;48.88;35.22;;;;;;;6.96;100.00;103448.66;5080463;28;20059;-69
2022/01/24 12:31:06;;;;;;;54.42;37.60;;;;;;;7.28;100.00;103441.84;5080990;28;20024;-69
2022/01/24 12:33:31;;;;;;;49.72;35.60;;;;;;;7.58;100.00;103438.94;5082713;28;20116;-69
2022/01/24 12:35:57;;;;;;;53.15;37.88;;;;;;;7.61;100.00;103446.75;5079048;28;20123;-68
2022/01/24 12:38:22;;;;;;;53.45;37.97;;;;;;;6.57;100.00;103442.56;5079886;28;20032;-68
2022/01/24 12:40:49;;;;;;;55.45;38.97;;;;;;;6.52;100.00;103442.28;5064139;28;20080;-68
2022/01/24 12:43:30;;;;;;;55.22;38.92;;;;;;;7.01;100.00;103442.63;5060154;28;20031;-69
2022/01/24 12:48:40;;;;;;;54.83;38.50;;;;;;;6.80;100.00;103430.66;5082780;28;20123;-68
2022/01/24 12:51:07;;;;;;;53.17;37.63;;;;;;;7.05;100.00;103443.91;5083915;28;20102;-68
2022/01/24 12:53:38;;;;;;;57.30;39.50;;;;;;;7.51;100.00;103425.25;5062239;28;20047;-68
2022/01/24 12:56:08;;;;;;;57.08;39.13;;;;;;;7.75;100.00;103423.09;5079888;28;20024;-69
2022/01/24 12:58:40;;;;;;;52.42;38.65;;;;;;;7.49;100.00;103421.88;5083265;28;20084;-69
2022/01/24 13:01:24;;;;;;;53.15;38.30;;;;;;;7.59;100.00;103407.88;5081699;28;20491;-69
2022/01/24 13:04:00;;;;;;;59.28;40.33;;;;;;;7.64;100.00;103413.56;5097621;28;20035;-68
2022/01/24 13:06:33;;;;;;;56.00;39.72;;;;;;;7.61;100.00;103411.25;5103419;28;20082;-69